HOURLY OBS INDEX

004

Pilbara - De Grey

BEDOUT ISLAND

Site: 004100
Alt: 8.6m
96km NNE of PORT HEDLAND


  Time     Wind        Temp  DP   Baro     Rain since   Rain past  Vis(m), Cloud(base in m), Weather
  local        km/h                         9am  last   hr   10m    
Sat 09:00  --- 15/ 20  26.3 16.5  1018.2   ----  ----  ----  ----   ----- 
Sat 10:00  --- 19/ 24  26.8 17.0  1017.8   ----  ----  ----  ----   ----- 
Sat 10:00  --- 19/ 24  26.8 17.0  1017.8   ----  ----  ----  ----   ----- 
Sat 11:00  --- 20/ 24  27.3 16.9  1017.4   ----  ----  ----  ----   ----- 
Sat 11:00  --- 20/ 24  27.3 16.9  1017.4   ----  ----  ----  ----   ----- 
Sat 12:00  --- 22/ 24  27.5 17.1  1016.6   ----  ----  ----  ----   ----- 
Sat 13:00  --- 19/ 20  27.1 18.1  1015.8   ----  ----  ----  ----   ----- 
Sat 14:00  --- 19/ 20  27.6 18.0  1015.1   ----  ----  ----  ----   ----- 

KARRATHA AERO

Site: 004083
Alt: 5.3m
9km WNW of KARRATHA


  Time     Wind        Temp  DP   Baro     Rain since   Rain past  Vis(m), Cloud(base in m), Weather
  local        km/h                         9am  last   hr   10m    
Sat 09:00    W 11/ 17  27.1  4.2  1018.5    0.0   0.0   0.0   0.0   10000 
Sat 09:30  WSW  9/ 15  28.3  5.8  1018.3    0.0   0.0   0.0   0.0   10000 
Sat 10:00   SW 11/ 19  30.6  4.4  1018.2    0.0   0.0   0.0   0.0   10000 
Sat 10:00   SW 11/ 19  30.6  4.4  1018.2    0.0   0.0  ----   0.0   10000 
Sat 10:30  WNW 15/ 17  31.5  1.8  1018.0    0.0   0.0   0.0   0.0   10000 
Sat 11:00  WSW 13/ 20  32.5 -3.0  1017.6    0.0   0.0   0.0   0.0   10000 
Sat 11:00  WSW 13/ 20  32.5 -3.0  1017.6    0.0   0.0  ----   0.0   10000 
Sat 11:30   NW 13/ 17  32.7 -0.4  1017.2    0.0   0.0   0.0   0.0   10000 
Sat 12:00    N 11/ 17  33.5 -1.0  1016.7    0.0   0.0   0.0   0.0   10000 
Sat 12:30  NNE 13/ 20  33.6 -2.2  1016.3    0.0   0.0   0.0   0.0   10000 
Sat 13:00   NE 19/ 24  32.9 -2.7  1015.8    0.0   0.0   0.0   0.0   10000 
Sat 13:30   NE 22/ 26  32.9  0.9  1015.5    0.0   0.0   0.0   0.0   10000 
Sat 14:00  NNE 20/ 28  32.0  2.1  1015.3    0.0   0.0   0.0   0.0   10000 
Sat 14:30  NNE 19/ 22  31.8  2.9  1015.1    0.0   0.0   0.0   0.0   10000 

LEGENDRE ISLAND

Site: 004095
Alt: 29.0m
41km N of KARRATHA


  Time     Wind        Temp  DP   Baro     Rain since   Rain past  Vis(m), Cloud(base in m), Weather
  local        km/h                         9am  last   hr   10m    
Sat 09:00   SW 15/ 17  27.0  9.8  1018.6   ----  ----  ----  ----   ----- 
Sat 09:30   SW 13/ 17  27.2  7.1  1018.8   ----  ----  ----  ----   ----- 
Sat 10:00   SW 13/ 17  28.4  5.9  1018.8   ----  ----  ----  ----   ----- 
Sat 10:00   SW 13/ 17  28.4  5.9  1018.8   ----  ----  ----  ----   ----- 
Sat 10:30  SSW  9/ 13  29.0  5.1  1018.7   ----  ----  ----  ----   ----- 
Sat 11:00   SW 15/ 19  28.4  4.6  1018.3   ----  ----  ----  ----   ----- 
Sat 11:00   SW 15/ 19  28.4  4.6  1018.3   ----  ----  ----  ----   ----- 
Sat 11:30  WSW 15/ 19  30.6  3.6  1017.9   ----  ----  ----  ----   ----- 
Sat 12:00    W 17/ 20  30.0  4.6  1017.5   ----  ----  ----  ----   ----- 
Sat 12:30  WSW 13/ 17  30.1  4.7  1017.2   ----  ----  ----  ----   ----- 
Sat 13:00    W  9/ 15  29.4 10.0  1016.7   ----  ----  ----  ----   ----- 
Sat 13:30  NNE  4/  7  30.0  9.5  1016.2   ----  ----  ----  ----   ----- 
Sat 14:00    N  6/  7  30.3  9.2  1015.8   ----  ----  ----  ----   ----- 
Sat 14:30    W 13/ 17  28.8 14.2  1015.8   ----  ----  ----  ----   ----- 

MANDORA

Site: 004019
Alt: 7.5m
243km ENE of PORT HEDLAND


  Time     Wind        Temp  DP   Baro     Rain since   Rain past  Vis(m), Cloud(base in m), Weather
  local        km/h                         9am  last   hr   10m    
Sat 09:00    E 17/ 30  28.0  1.5  1018.2    0.0   0.0   0.0   0.0   ----- 
Sat 09:30    E 17/ 28  30.3  2.5  1018.0    0.0   0.0   0.0   0.0   ----- 
Sat 10:00    E 17/ 28  31.9  2.1  1017.7    0.0   0.0   0.0   0.0   ----- 
Sat 10:00    E 17/ 28  31.9  2.1  1017.7    0.0   0.0  ----   0.0   ----- 
Sat 10:30    E 15/ 26  33.4  0.1  1017.4    0.0   0.0   0.0   0.0   ----- 
Sat 11:00    E 19/ 30  34.3 -0.4  1017.0    0.0   0.0   0.0   0.0   ----- 
Sat 11:00    E 19/ 30  34.3 -0.4  1017.0    0.0   0.0  ----   0.0   ----- 
Sat 11:30    E 17/ 26  35.5  0.6  1016.3    0.0   0.0   0.0   0.0   ----- 
Sat 12:00    E 15/ 22  36.3 -0.2  1015.7    0.0   0.0   0.0   0.0   ----- 
Sat 12:30  ENE 13/ 20  36.5  0.0  1015.1    0.0   0.0   0.0   0.0   ----- 
Sat 13:00    N 13/ 20  34.7  3.3  1014.5    0.0   0.0   0.0   0.0   ----- 
Sat 13:30    N 11/ 19  34.5  1.0  1014.1    0.0   0.0   0.0   0.0   ----- 
Sat 14:00  NNW 15/ 20  34.4  3.1  1013.9    0.0   0.0   0.0   0.0   ----- 
Sat 14:30  NNW 13/ 19  34.4  3.1  1013.8    0.0   0.0   0.0   0.0   ----- 

MARBLE BAR

Site: 004106
Alt: 182.3m
153km SE of PORT HEDLAND


  Time     Wind        Temp  DP   Baro     Rain since   Rain past  Vis(m), Cloud(base in m), Weather
  local        km/h                         9am  last   hr   10m    
Sat 09:00  ENE 19/ 33  29.4 -1.9  1020.2    0.0   0.0   0.0   0.0   ----- 
Sat 09:30  ENE 19/ 28  30.3 -2.2  1020.1    0.0   0.0   0.0   0.0   ----- 
Sat 10:00  ENE 19/ 32  30.9 -3.0  1020.0    0.0   0.0   0.0   0.0   ----- 
Sat 10:00  ENE 19/ 32  30.9 -3.0  1020.0    0.0   0.0  ----   0.0   ----- 
Sat 10:30  ENE 19/ 30  31.9 -3.5  1019.4    0.0   0.0   0.0   0.0   ----- 
Sat 11:00  ENE 22/ 32  32.7 -2.9  1019.0    0.0   0.0   0.0   0.0   ----- 
Sat 11:00  ENE 22/ 32  32.7 -2.9  1019.0    0.0   0.0  ----   0.0   ----- 
Sat 11:30  ENE 17/ 26  33.3 -2.4  1018.5    0.0   0.0   0.0   0.0   ----- 
Sat 12:00  ENE 13/ 24  33.8 -0.7  1017.8    0.0   0.0   0.0   0.0   ----- 
Sat 12:30    N 13/ 24  33.7 -2.1  1016.9    0.0   0.0   0.0   0.0   ----- 
Sat 13:00  NNE 15/ 30  34.3 -1.7  1016.5    0.0   0.0   0.0   0.0   ----- 
Sat 13:30  NNW  7/ 22  35.0 -2.6  1016.0    0.0   0.0   0.0   0.0   ----- 
Sat 14:00   NW 15/ 26  35.4 -2.3  1015.6    0.0   0.0   0.0   0.0   ----- 
Sat 14:30    N 11/ 20  35.8 -2.0  1015.3    0.0   0.0   0.0   0.0   ----- 

PORT HEDLAND AIRPORT

Site: 004032
Alt: 6.4m
8km SSE of PORT HEDLAND


  Time     Wind        Temp  DP   Baro     Rain since   Rain past  Vis(m), Cloud(base in m), Weather
  local        km/h                         9am  last   hr   10m    
Sat 09:00  ENE 28/ 35  30.6  4.4  1018.2    0.0   0.0   0.0   0.0   10000 
Sat 09:30  ENE 26/ 35  30.7  4.4  1018.1    0.0   0.0   0.0   0.0   10000 
Sat 10:00  ENE 28/ 35  31.4  5.8  1018.0    0.0   0.0   0.0   0.0   10000 
Sat 10:00  ENE 28/ 35  31.4  5.8  1018.0    0.0   0.0  ----   0.0   10000 
Sat 10:30   NE 26/ 35  32.1  4.8  1017.9    0.0   0.0   0.0   0.0   10000 
Sat 11:00  NNE 28/ 33  32.0  7.6  1017.6    0.0   0.0   0.0   0.0   10000 
Sat 11:00  NNE 28/ 33  32.0  7.6  1017.6    0.0   0.0  ----   0.0   10000 
Sat 11:30  NNE 26/ 32  30.8  9.6  1017.2    0.0   0.0   0.0   0.0   10000 
Sat 12:00  NNE 26/ 32  31.4  9.0  1016.8    0.0   0.0   0.0   0.0   10000 
Sat 12:30  NNE 28/ 35  30.8  7.9  1016.4    0.0   0.0   0.0   0.0   10000 
Sat 13:00    N 30/ 33  30.9  9.2  1016.0    0.0   0.0   0.0   0.0   10000 
Sat 13:30  NNE 28/ 32  29.5  9.1  1015.8    0.0   0.0   0.0   0.0   10000 
Sat 14:00  NNE 22/ 26  29.3 12.7  1015.4    0.0   0.0   0.0   0.0   10000 
Sat 14:30  NNE 22/ 30  28.3 13.8  1015.3    0.0   0.0   0.0   0.0   10000 

ROEBOURNE AERO

Site: 004090
Alt: 10.7m
31km E of KARRATHA


  Time     Wind        Temp  DP   Baro     Rain since   Rain past  Vis(m), Cloud(base in m), Weather
  local        km/h                         9am  last   hr   10m    
Sat 09:00  SSE 19/ 20  30.3 -3.4  1018.7    0.0   0.0   0.0   0.0   ----- 
Sat 09:30   SE 17/ 20  31.5 -3.8  1018.6    0.0   0.0   0.0   0.0   ----- 
Sat 10:00   SE 15/ 22  32.7 -1.6  1018.4    0.0   0.0   0.0   0.0   ----- 
Sat 10:00   SE 15/ 22  32.7 -1.6  1018.4    0.0   0.0  ----   0.0   ----- 
Sat 10:30    E 17/ 24  33.0 -0.2  1018.3    0.0   0.0   0.0   0.0   ----- 
Sat 11:00  ENE 15/ 26  33.3  0.1  1018.0    0.0   0.0   0.0   0.0   ----- 
Sat 11:00  ENE 15/ 26  33.3  0.1  1018.0    0.0   0.0  ----   0.0   ----- 
Sat 11:30  NNE 19/ 24  33.6  2.4  1017.6    0.0   0.0   0.0   0.0   ----- 
Sat 12:00    N 19/ 26  33.5  2.4  1017.3    0.0   0.0   0.0   0.0   ----- 
Sat 12:30  NNE 24/ 35  34.3  3.0  1016.9    0.0   0.0   0.0   0.0   ----- 
Sat 13:00  NNE 22/ 30  33.8  3.6  1016.3    0.0   0.0   0.0   0.0   ----- 
Sat 13:30  NNE 17/ 26  33.9  3.7  1015.9    0.0   0.0   0.0   0.0   ----- 
Sat 14:00  NNE 15/ 26  33.6 -0.9  1015.5    0.0   0.0   0.0   0.0   ----- 
Sat 14:30  NNE 13/ 24  34.5 -0.2  1015.2    0.0   0.0   0.0   0.0   -----